sensor_id;sensor_type;location;lat;lon;timestamp;P1;durP1;ratioP1;P2;durP2;ratioP2
3767;SDS011;1899;49.966;7.106;2023-03-01T05:01:41;22.13;;;15.90;;
3767;SDS011;1899;49.966;7.106;2023-03-01T05:04:08;25.40;;;17.70;;
3767;SDS011;1899;49.966;7.106;2023-03-01T05:06:37;21.93;;;16.63;;
3767;SDS011;1899;49.966;7.106;2023-03-01T05:09:03;21.80;;;16.80;;
3767;SDS011;1899;49.966;7.106;2023-03-01T05:11:28;22.13;;;16.50;;
3767;SDS011;1899;49.966;7.106;2023-03-01T05:13:58;23.27;;;17.33;;
3767;SDS011;1899;49.966;7.106;2023-03-01T05:16:24;23.40;;;17.35;;
3767;SDS011;1899;49.966;7.106;2023-03-01T05:18:49;24.10;;;17.38;;
3767;SDS011;1899;49.966;7.106;2023-03-01T05:21:16;23.83;;;17.77;;
3767;SDS011;1899;49.966;7.106;2023-03-01T05:23:41;23.50;;;17.10;;
3767;SDS011;1899;49.966;7.106;2023-03-01T05:26:07;25.83;;;17.92;;
3767;SDS011;1899;49.966;7.106;2023-03-01T05:28:33;21.77;;;15.82;;
3767;SDS011;1899;49.966;7.106;2023-03-01T05:30:58;23.83;;;17.37;;
3767;SDS011;1899;49.966;7.106;2023-03-01T05:33:24;23.60;;;18.30;;
3767;SDS011;1899;49.966;7.106;2023-03-01T05:35:50;24.67;;;17.85;;
3767;SDS011;1899;49.966;7.106;2023-03-01T05:38:15;25.00;;;17.80;;
3767;SDS011;1899;49.966;7.106;2023-03-01T05:40:42;23.23;;;17.60;;
3767;SDS011;1899;49.966;7.106;2023-03-01T05:43:07;25.00;;;18.33;;
3767;SDS011;1899;49.966;7.106;2023-03-01T05:45:32;22.50;;;17.27;;
3767;SDS011;1899;49.966;7.106;2023-03-01T05:48:00;24.58;;;18.38;;
3767;SDS011;1899;49.966;7.106;2023-03-01T05:50:26;22.80;;;17.53;;
3767;SDS011;1899;49.966;7.106;2023-03-01T05:52:56;24.33;;;17.95;;
3767;SDS011;1899;49.966;7.106;2023-03-01T05:55:21;25.30;;;18.17;;
3767;SDS011;1899;49.966;7.106;2023-03-01T05:57:47;24.10;;;17.73;;
3767;SDS011;1899;49.966;7.106;2023-03-01T06:00:13;23.73;;;17.97;;
3767;SDS011;1899;49.966;7.106;2023-03-01T06:02:39;22.58;;;18.05;;
3767;SDS011;1899;49.966;7.106;2023-03-01T06:05:05;22.48;;;17.10;;
3767;SDS011;1899;49.966;7.106;2023-03-01T06:07:31;25.75;;;18.67;;
3767;SDS011;1899;49.966;7.106;2023-03-01T06:09:56;25.83;;;18.60;;
3767;SDS011;1899;49.966;7.106;2023-03-01T06:12:21;24.33;;;17.83;;
3767;SDS011;1899;49.966;7.106;2023-03-01T06:14:47;24.40;;;18.03;;
3767;SDS011;1899;49.966;7.106;2023-03-01T06:17:12;26.53;;;19.33;;
3767;SDS011;1899;49.966;7.106;2023-03-01T06:19:38;26.07;;;19.30;;
3767;SDS011;1899;49.966;7.106;2023-03-01T06:22:03;27.80;;;19.97;;
3767;SDS011;1899;49.966;7.106;2023-03-01T06:24:28;28.80;;;20.77;;
3767;SDS011;1899;49.966;7.106;2023-03-01T06:26:54;28.05;;;19.55;;
3767;SDS011;1899;49.966;7.106;2023-03-01T06:29:19;24.92;;;19.33;;
3767;SDS011;1899;49.966;7.106;2023-03-01T06:31:44;28.50;;;19.95;;
3767;SDS011;1899;49.966;7.106;2023-03-01T06:34:10;27.77;;;20.00;;
3767;SDS011;1899;49.966;7.106;2023-03-01T06:36:38;32.10;;;19.77;;
3767;SDS011;1899;49.966;7.106;2023-03-01T06:39:03;27.57;;;20.10;;
3767;SDS011;1899;49.966;7.106;2023-03-01T06:41:30;29.27;;;20.00;;
3767;SDS011;1899;49.966;7.106;2023-03-01T06:43:55;28.57;;;19.23;;
3767;SDS011;1899;49.966;7.106;2023-03-01T06:46:20;29.23;;;19.70;;
3767;SDS011;1899;49.966;7.106;2023-03-01T06:48:46;27.43;;;19.23;;
3767;SDS011;1899;49.966;7.106;2023-03-01T06:51:11;26.77;;;19.70;;
3767;SDS011;1899;49.966;7.106;2023-03-01T06:53:37;26.42;;;19.73;;
3767;SDS011;1899;49.966;7.106;2023-03-01T06:56:02;25.58;;;19.10;;
3767;SDS011;1899;49.966;7.106;2023-03-01T06:58:27;27.27;;;18.70;;
3767;SDS011;1899;49.966;7.106;2023-03-01T07:00:53;26.08;;;19.80;;
3767;SDS011;1899;49.966;7.106;2023-03-01T07:03:18;25.90;;;19.50;;
3767;SDS011;1899;49.966;7.106;2023-03-01T07:05:43;26.70;;;19.50;;
3767;SDS011;1899;49.966;7.106;2023-03-01T07:08:09;28.92;;;20.42;;
3767;SDS011;1899;49.966;7.106;2023-03-01T07:10:37;24.60;;;18.27;;
3767;SDS011;1899;49.966;7.106;2023-03-01T07:13:03;26.02;;;19.83;;
3767;SDS011;1899;49.966;7.106;2023-03-01T07:15:28;25.90;;;20.13;;
3767;SDS011;1899;49.966;7.106;2023-03-01T07:17:53;26.33;;;19.33;;
3767;SDS011;1899;49.966;7.106;2023-03-01T07:20:19;27.10;;;19.37;;
3767;SDS011;1899;49.966;7.106;2023-03-01T07:22:49;23.25;;;17.88;;
3767;SDS011;1899;49.966;7.106;2023-03-01T07:25:14;28.13;;;19.40;;
3767;SDS011;1899;49.966;7.106;2023-03-01T07:27:39;27.80;;;19.60;;
3767;SDS011;1899;49.966;7.106;2023-03-01T07:30:07;26.60;;;18.67;;
3767;SDS011;1899;49.966;7.106;2023-03-01T07:32:32;27.80;;;19.70;;
3767;SDS011;1899;49.966;7.106;2023-03-01T07:34:58;27.25;;;18.83;;
3767;SDS011;1899;49.966;7.106;2023-03-01T07:37:23;26.03;;;19.10;;
3767;SDS011;1899;49.966;7.106;2023-03-01T07:39:48;26.50;;;19.20;;
3767;SDS011;1899;49.966;7.106;2023-03-01T07:42:13;24.57;;;19.23;;
3767;SDS011;1899;49.966;7.106;2023-03-01T07:44:39;25.80;;;18.03;;
3767;SDS011;1899;49.966;7.106;2023-03-01T07:47:04;25.97;;;19.40;;
3767;SDS011;1899;49.966;7.106;2023-03-01T07:49:29;26.40;;;19.17;;
3767;SDS011;1899;49.966;7.106;2023-03-01T07:51:54;29.27;;;19.60;;
3767;SDS011;1899;49.966;7.106;2023-03-01T07:54:20;28.33;;;18.77;;
3767;SDS011;1899;49.966;7.106;2023-03-01T07:56:45;29.87;;;19.97;;
3767;SDS011;1899;49.966;7.106;2023-03-01T07:59:10;27.33;;;19.63;;
3767;SDS011;1899;49.966;7.106;2023-03-01T08:01:36;27.53;;;19.57;;
3767;SDS011;1899;49.966;7.106;2023-03-01T08:04:01;25.60;;;18.97;;
3767;SDS011;1899;49.966;7.106;2023-03-01T08:06:26;26.30;;;19.23;;
3767;SDS011;1899;49.966;7.106;2023-03-01T08:08:52;26.47;;;19.33;;
3767;SDS011;1899;49.966;7.106;2023-03-01T08:11:17;25.47;;;18.73;;
3767;SDS011;1899;49.966;7.106;2023-03-01T08:13:42;29.57;;;19.70;;
3767;SDS011;1899;49.966;7.106;2023-03-01T08:16:10;27.17;;;19.00;;
3767;SDS011;1899;49.966;7.106;2023-03-01T08:18:35;28.43;;;20.70;;
3767;SDS011;1899;49.966;7.106;2023-03-01T08:21:01;24.20;;;19.07;;
3767;SDS011;1899;49.966;7.106;2023-03-01T08:23:27;26.23;;;19.02;;
3767;SDS011;1899;49.966;7.106;2023-03-01T08:25:52;23.10;;;18.40;;
3767;SDS011;1899;49.966;7.106;2023-03-01T08:28:18;24.97;;;18.30;;
3767;SDS011;1899;49.966;7.106;2023-03-01T08:30:43;25.63;;;18.80;;
3767;SDS011;1899;49.966;7.106;2023-03-01T08:33:08;24.33;;;18.00;;
3767;SDS011;1899;49.966;7.106;2023-03-01T08:35:33;25.23;;;18.13;;
3767;SDS011;1899;49.966;7.106;2023-03-01T08:37:58;24.90;;;18.13;;
3767;SDS011;1899;49.966;7.106;2023-03-01T08:40:24;22.05;;;17.75;;
3767;SDS011;1899;49.966;7.106;2023-03-01T08:42:49;24.95;;;19.30;;
3767;SDS011;1899;49.966;7.106;2023-03-01T08:45:14;23.70;;;17.55;;
3767;SDS011;1899;49.966;7.106;2023-03-01T08:47:43;24.83;;;16.85;;
3767;SDS011;1899;49.966;7.106;2023-03-01T08:50:08;21.83;;;17.57;;
3767;SDS011;1899;49.966;7.106;2023-03-01T08:52:34;23.63;;;17.52;;
3767;SDS011;1899;49.966;7.106;2023-03-01T08:54:59;22.20;;;17.13;;
3767;SDS011;1899;49.966;7.106;2023-03-01T08:57:26;21.02;;;16.80;;
3767;SDS011;1899;49.966;7.106;2023-03-01T08:59:51;25.03;;;17.57;;
3767;SDS011;1899;49.966;7.106;2023-03-01T09:02:17;23.90;;;16.90;;
3767;SDS011;1899;49.966;7.106;2023-03-01T09:04:43;25.15;;;17.40;;
3767;SDS011;1899;49.966;7.106;2023-03-01T09:07:09;21.70;;;16.50;;
3767;SDS011;1899;49.966;7.106;2023-03-01T09:09:35;20.88;;;16.02;;
3767;SDS011;1899;49.966;7.106;2023-03-01T09:12:00;22.08;;;16.95;;
3767;SDS011;1899;49.966;7.106;2023-03-01T09:14:26;22.25;;;16.33;;
3767;SDS011;1899;49.966;7.106;2023-03-01T09:16:51;20.57;;;16.73;;
3767;SDS011;1899;49.966;7.106;2023-03-01T09:19:16;19.97;;;15.73;;
3767;SDS011;1899;49.966;7.106;2023-03-01T09:21:41;22.77;;;16.90;;
3767;SDS011;1899;49.966;7.106;2023-03-01T09:24:18;21.58;;;15.80;;
3767;SDS011;1899;49.966;7.106;2023-03-01T09:26:43;21.40;;;16.27;;
3767;SDS011;1899;49.966;7.106;2023-03-01T09:29:11;20.55;;;16.45;;
3767;SDS011;1899;49.966;7.106;2023-03-01T09:31:37;21.65;;;15.77;;
3767;SDS011;1899;49.966;7.106;2023-03-01T09:34:02;21.47;;;15.80;;
3767;SDS011;1899;49.966;7.106;2023-03-01T09:36:27;21.00;;;16.77;;
3767;SDS011;1899;49.966;7.106;2023-03-01T09:38:53;20.65;;;14.98;;
3767;SDS011;1899;49.966;7.106;2023-03-01T09:43:49;23.38;;;15.88;;
3767;SDS011;1899;49.966;7.106;2023-03-01T09:46:19;20.13;;;15.82;;
3767;SDS011;1899;49.966;7.106;2023-03-01T09:51:21;22.70;;;16.65;;
3767;SDS011;1899;49.966;7.106;2023-03-01T09:53:48;19.23;;;15.68;;
3767;SDS011;1899;49.966;7.106;2023-03-01T09:56:16;21.33;;;16.42;;
3767;SDS011;1899;49.966;7.106;2023-03-01T09:59:03;22.13;;;16.40;;
3767;SDS011;1899;49.966;7.106;2023-03-01T10:01:35;21.90;;;16.35;;
3767;SDS011;1899;49.966;7.106;2023-03-01T10:06:51;20.43;;;16.37;;
3767;SDS011;1899;49.966;7.106;2023-03-01T10:09:20;21.77;;;16.15;;
3767;SDS011;1899;49.966;7.106;2023-03-01T10:11:50;22.13;;;17.20;;
3767;SDS011;1899;49.966;7.106;2023-03-01T10:16:52;22.27;;;17.13;;
3767;SDS011;1899;49.966;7.106;2023-03-01T10:22:05;21.23;;;15.93;;
3767;SDS011;1899;49.966;7.106;2023-03-01T10:24:35;22.58;;;17.27;;
3767;SDS011;1899;49.966;7.106;2023-03-01T10:27:04;20.80;;;16.42;;
3767;SDS011;1899;49.966;7.106;2023-03-01T10:29:44;22.60;;;17.37;;
3767;SDS011;1899;49.966;7.106;2023-03-01T10:32:11;19.60;;;16.02;;
3767;SDS011;1899;49.966;7.106;2023-03-01T10:34:36;21.43;;;16.93;;
3767;SDS011;1899;49.966;7.106;2023-03-01T10:39:33;19.42;;;15.68;;
3767;SDS011;1899;49.966;7.106;2023-03-01T10:41:59;21.47;;;16.03;;
3767;SDS011;1899;49.966;7.106;2023-03-01T10:44:35;20.95;;;16.98;;
3767;SDS011;1899;49.966;7.106;2023-03-01T10:47:01;21.85;;;17.13;;
3767;SDS011;1899;49.966;7.106;2023-03-01T10:49:26;21.60;;;16.83;;
3767;SDS011;1899;49.966;7.106;2023-03-01T10:51:52;22.73;;;16.97;;
3767;SDS011;1899;49.966;7.106;2023-03-01T10:54:31;22.30;;;17.35;;
3767;SDS011;1899;49.966;7.106;2023-03-01T10:57:00;23.70;;;18.42;;
3767;SDS011;1899;49.966;7.106;2023-03-01T10:59:27;21.40;;;16.13;;
3767;SDS011;1899;49.966;7.106;2023-03-01T11:04:36;22.10;;;18.00;;
3767;SDS011;1899;49.966;7.106;2023-03-01T11:07:02;21.40;;;17.70;;
3767;SDS011;1899;49.966;7.106;2023-03-01T11:09:30;20.70;;;16.40;;
3767;SDS011;1899;49.966;7.106;2023-03-01T11:12:02;21.60;;;16.70;;
3767;SDS011;1899;49.966;7.106;2023-03-01T11:14:30;23.55;;;17.48;;
3767;SDS011;1899;49.966;7.106;2023-03-01T11:16:58;21.80;;;17.63;;
3767;SDS011;1899;49.966;7.106;2023-03-01T11:19:23;21.00;;;16.30;;
3767;SDS011;1899;49.966;7.106;2023-03-01T11:22:12;22.33;;;16.88;;
3767;SDS011;1899;49.966;7.106;2023-03-01T11:24:42;22.20;;;17.10;;
3767;SDS011;1899;49.966;7.106;2023-03-01T11:27:14;21.95;;;17.00;;
3767;SDS011;1899;49.966;7.106;2023-03-01T11:29:41;19.67;;;15.60;;
3767;SDS011;1899;49.966;7.106;2023-03-01T11:32:08;22.00;;;16.83;;
3767;SDS011;1899;49.966;7.106;2023-03-01T11:34:37;25.42;;;16.73;;
3767;SDS011;1899;49.966;7.106;2023-03-01T11:37:07;21.15;;;16.60;;
3767;SDS011;1899;49.966;7.106;2023-03-01T11:39:47;23.23;;;16.55;;
3767;SDS011;1899;49.966;7.106;2023-03-01T11:42:18;19.92;;;16.70;;
3767;SDS011;1899;49.966;7.106;2023-03-01T11:44:44;21.48;;;16.70;;
3767;SDS011;1899;49.966;7.106;2023-03-01T12:04:32;20.80;;;16.30;;
3767;SDS011;1899;49.966;7.106;2023-03-01T12:07:01;21.52;;;17.70;;
3767;SDS011;1899;49.966;7.106;2023-03-01T12:09:45;19.75;;;16.30;;
3767;SDS011;1899;49.966;7.106;2023-03-01T12:27:51;19.88;;;16.35;;
3767;SDS011;1899;49.966;7.106;2023-03-01T12:32:58;20.97;;;15.97;;
3767;SDS011;1899;49.966;7.106;2023-03-01T12:46:00;16.80;;;15.10;;
3767;SDS011;1899;49.966;7.106;2023-03-01T12:51:17;17.92;;;15.02;;
3767;SDS011;1899;49.966;7.106;2023-03-01T12:53:45;16.88;;;15.07;;
3767;SDS011;1899;49.966;7.106;2023-03-01T12:56:12;19.65;;;15.40;;
3767;SDS011;1899;49.966;7.106;2023-03-01T13:01:19;17.35;;;15.32;;
3767;SDS011;1899;49.966;7.106;2023-03-01T13:06:22;18.10;;;15.68;;
3767;SDS011;1899;49.966;7.106;2023-03-01T13:11:22;16.33;;;14.73;;
3767;SDS011;1899;49.966;7.106;2023-03-01T13:13:48;16.70;;;15.00;;
3767;SDS011;1899;49.966;7.106;2023-03-01T13:16:20;17.45;;;15.65;;
3767;SDS011;1899;49.966;7.106;2023-03-01T13:18:47;15.70;;;13.98;;
3767;SDS011;1899;49.966;7.106;2023-03-01T13:21:12;15.93;;;14.23;;
3767;SDS011;1899;49.966;7.106;2023-03-01T13:23:38;15.90;;;14.30;;
3767;SDS011;1899;49.966;7.106;2023-03-01T13:36:09;15.93;;;14.23;;
3767;SDS011;1899;49.966;7.106;2023-03-01T13:38:48;15.95;;;13.65;;
3767;SDS011;1899;49.966;7.106;2023-03-01T13:44:25;15.32;;;13.73;;
3767;SDS011;1899;49.966;7.106;2023-03-01T13:49:21;14.40;;;12.90;;
3767;SDS011;1899;49.966;7.106;2023-03-01T13:51:49;15.90;;;13.65;;
3767;SDS011;1899;49.966;7.106;2023-03-01T13:54:15;14.55;;;13.05;;
3767;SDS011;1899;49.966;7.106;2023-03-01T13:56:41;15.57;;;14.07;;
3767;SDS011;1899;49.966;7.106;2023-03-01T13:59:14;16.63;;;13.73;;
3767;SDS011;1899;49.966;7.106;2023-03-01T14:01:40;15.80;;;14.20;;
3767;SDS011;1899;49.966;7.106;2023-03-01T14:04:25;15.70;;;14.00;;
3767;SDS011;1899;49.966;7.106;2023-03-01T14:06:50;14.95;;;13.35;;
3767;SDS011;1899;49.966;7.106;2023-03-01T14:12:27;14.10;;;12.70;;
3767;SDS011;1899;49.966;7.106;2023-03-01T14:19:30;13.60;;;12.20;;
3767;SDS011;1899;49.966;7.106;2023-03-01T14:22:04;13.57;;;12.17;;
3767;SDS011;1899;49.966;7.106;2023-03-01T14:24:36;15.13;;;13.30;;
3767;SDS011;1899;49.966;7.106;2023-03-01T14:27:03;14.23;;;12.40;;
3767;SDS011;1899;49.966;7.106;2023-03-01T14:29:36;13.80;;;12.40;;
3767;SDS011;1899;49.966;7.106;2023-03-01T14:34:35;14.98;;;12.98;;
3767;SDS011;1899;49.966;7.106;2023-03-01T14:39:45;14.10;;;12.50;;
3767;SDS011;1899;49.966;7.106;2023-03-01T14:42:11;16.07;;;13.83;;
3767;SDS011;1899;49.966;7.106;2023-03-01T14:44:37;16.75;;;13.10;;
3767;SDS011;1899;49.966;7.106;2023-03-01T14:47:02;13.30;;;11.93;;
3767;SDS011;1899;49.966;7.106;2023-03-01T14:49:29;12.73;;;11.40;;
3767;SDS011;1899;49.966;7.106;2023-03-01T14:54:23;16.53;;;12.00;;
3767;SDS011;1899;49.966;7.106;2023-03-01T14:56:50;14.93;;;11.90;;
3767;SDS011;1899;49.966;7.106;2023-03-01T14:59:16;13.52;;;11.50;;
3767;SDS011;1899;49.966;7.106;2023-03-01T15:01:43;13.38;;;11.07;;
3767;SDS011;1899;49.966;7.106;2023-03-01T15:04:11;12.80;;;10.70;;
3767;SDS011;1899;49.966;7.106;2023-03-01T15:06:37;15.43;;;10.75;;
3767;SDS011;1899;49.966;7.106;2023-03-01T15:09:03;13.77;;;11.07;;
3767;SDS011;1899;49.966;7.106;2023-03-01T15:13:53;12.87;;;10.10;;
3767;SDS011;1899;49.966;7.106;2023-03-01T15:16:21;14.17;;;10.70;;
3767;SDS011;1899;49.966;7.106;2023-03-01T15:18:52;12.85;;;10.60;;
3767;SDS011;1899;49.966;7.106;2023-03-01T15:21:29;12.73;;;10.23;;
3767;SDS011;1899;49.966;7.106;2023-03-01T15:26:44;10.80;;;9.40;;
3767;SDS011;1899;49.966;7.106;2023-03-01T15:29:15;12.48;;;9.77;;
3767;SDS011;1899;49.966;7.106;2023-03-01T15:31:41;11.45;;;9.20;;
3767;SDS011;1899;49.966;7.106;2023-03-01T15:34:08;11.23;;;8.63;;
3767;SDS011;1899;49.966;7.106;2023-03-01T15:36:41;9.73;;;8.73;;
3767;SDS011;1899;49.966;7.106;2023-03-01T15:41:51;9.93;;;8.70;;
3767;SDS011;1899;49.966;7.106;2023-03-01T15:46:50;11.00;;;8.20;;
3767;SDS011;1899;49.966;7.106;2023-03-01T15:51:59;8.27;;;7.47;;
3767;SDS011;1899;49.966;7.106;2023-03-01T15:54:25;9.07;;;7.40;;
3767;SDS011;1899;49.966;7.106;2023-03-01T15:56:51;8.70;;;7.80;;
3767;SDS011;1899;49.966;7.106;2023-03-01T15:59:17;10.50;;;7.63;;
3767;SDS011;1899;49.966;7.106;2023-03-01T16:01:43;7.70;;;6.90;;
3767;SDS011;1899;49.966;7.106;2023-03-01T16:04:12;9.63;;;7.00;;
3767;SDS011;1899;49.966;7.106;2023-03-01T16:06:45;9.30;;;7.20;;
3767;SDS011;1899;49.966;7.106;2023-03-01T16:09:10;10.60;;;7.70;;
3767;SDS011;1899;49.966;7.106;2023-03-01T16:11:37;8.32;;;6.95;;
3767;SDS011;1899;49.966;7.106;2023-03-01T16:14:04;10.75;;;7.13;;
3767;SDS011;1899;49.966;7.106;2023-03-01T16:16:30;10.13;;;7.40;;
3767;SDS011;1899;49.966;7.106;2023-03-01T16:18:55;8.40;;;7.10;;
3767;SDS011;1899;49.966;7.106;2023-03-01T16:21:22;11.97;;;6.93;;
3767;SDS011;1899;49.966;7.106;2023-03-01T16:23:48;10.93;;;7.20;;
3767;SDS011;1899;49.966;7.106;2023-03-01T16:26:13;8.98;;;6.97;;
3767;SDS011;1899;49.966;7.106;2023-03-01T16:28:40;11.25;;;7.57;;
3767;SDS011;1899;49.966;7.106;2023-03-01T16:31:05;9.70;;;7.30;;
3767;SDS011;1899;49.966;7.106;2023-03-01T16:33:31;8.43;;;7.30;;
3767;SDS011;1899;49.966;7.106;2023-03-01T16:35:56;8.70;;;6.33;;
3767;SDS011;1899;49.966;7.106;2023-03-01T16:38:23;8.50;;;7.05;;
3767;SDS011;1899;49.966;7.106;2023-03-01T16:40:49;9.47;;;7.60;;
3767;SDS011;1899;49.966;7.106;2023-03-01T16:43:14;9.65;;;7.60;;
3767;SDS011;1899;49.966;7.106;2023-03-01T16:45:40;10.17;;;7.90;;
3767;SDS011;1899;49.966;7.106;2023-03-01T16:48:09;10.65;;;7.55;;
3767;SDS011;1899;49.966;7.106;2023-03-01T16:50:34;8.00;;;7.20;;
3767;SDS011;1899;49.966;7.106;2023-03-01T16:52:59;9.73;;;7.37;;
3767;SDS011;1899;49.966;7.106;2023-03-01T16:55:25;10.13;;;7.83;;
3767;SDS011;1899;49.966;7.106;2023-03-01T16:57:50;8.17;;;6.80;;
3767;SDS011;1899;49.966;7.106;2023-03-01T17:00:16;8.30;;;6.93;;
3767;SDS011;1899;49.966;7.106;2023-03-01T17:02:42;9.00;;;6.78;;
3767;SDS011;1899;49.966;7.106;2023-03-01T17:05:08;9.00;;;7.60;;
3767;SDS011;1899;49.966;7.106;2023-03-01T17:07:35;8.25;;;6.55;;
3767;SDS011;1899;49.966;7.106;2023-03-01T17:10:01;9.63;;;7.28;;
3767;SDS011;1899;49.966;7.106;2023-03-01T17:12:26;9.93;;;7.55;;
3767;SDS011;1899;49.966;7.106;2023-03-01T17:14:52;10.35;;;7.30;;
3767;SDS011;1899;49.966;7.106;2023-03-01T17:17:18;8.90;;;7.00;;
3767;SDS011;1899;49.966;7.106;2023-03-01T17:19:43;9.80;;;7.23;;
3767;SDS011;1899;49.966;7.106;2023-03-01T17:22:09;10.40;;;7.33;;
3767;SDS011;1899;49.966;7.106;2023-03-01T17:24:38;8.70;;;6.40;;
3767;SDS011;1899;49.966;7.106;2023-03-01T17:27:05;9.05;;;7.00;;
3767;SDS011;1899;49.966;7.106;2023-03-01T17:29:30;9.67;;;7.03;;
3767;SDS011;1899;49.966;7.106;2023-03-01T17:31:55;9.23;;;7.60;;
3767;SDS011;1899;49.966;7.106;2023-03-01T17:34:21;10.77;;;7.80;;
3767;SDS011;1899;49.966;7.106;2023-03-01T17:36:47;10.60;;;8.00;;
3767;SDS011;1899;49.966;7.106;2023-03-01T17:39:14;11.50;;;7.90;;
3767;SDS011;1899;49.966;7.106;2023-03-01T17:41:39;9.77;;;7.77;;
3767;SDS011;1899;49.966;7.106;2023-03-01T17:44:05;9.40;;;7.60;;
3767;SDS011;1899;49.966;7.106;2023-03-01T17:46:30;10.73;;;8.20;;
3767;SDS011;1899;49.966;7.106;2023-03-01T17:48:55;11.20;;;8.10;;
3767;SDS011;1899;49.966;7.106;2023-03-01T17:51:20;10.27;;;7.80;;
3767;SDS011;1899;49.966;7.106;2023-03-01T17:53:46;10.73;;;7.90;;
3767;SDS011;1899;49.966;7.106;2023-03-01T17:56:11;10.47;;;7.63;;
3767;SDS011;1899;49.966;7.106;2023-03-01T17:58:36;12.40;;;8.40;;
3767;SDS011;1899;49.966;7.106;2023-03-01T18:01:21;10.52;;;7.97;;
3767;SDS011;1899;49.966;7.106;2023-03-01T18:03:49;13.18;;;9.07;;
3767;SDS011;1899;49.966;7.106;2023-03-01T18:06:18;11.10;;;7.82;;
3767;SDS011;1899;49.966;7.106;2023-03-01T18:08:44;10.65;;;8.60;;
3767;SDS011;1899;49.966;7.106;2023-03-01T18:11:10;9.13;;;7.65;;
3767;SDS011;1899;49.966;7.106;2023-03-01T18:13:36;10.60;;;7.78;;
3767;SDS011;1899;49.966;7.106;2023-03-01T18:16:09;10.77;;;8.27;;
3767;SDS011;1899;49.966;7.106;2023-03-01T18:18:34;11.18;;;8.27;;
3767;SDS011;1899;49.966;7.106;2023-03-01T18:21:00;12.00;;;8.88;;
3767;SDS011;1899;49.966;7.106;2023-03-01T18:23:25;11.65;;;9.32;;
3767;SDS011;1899;49.966;7.106;2023-03-01T18:25:51;12.80;;;9.35;;
3767;SDS011;1899;49.966;7.106;2023-03-01T18:28:18;12.23;;;9.40;;
3767;SDS011;1899;49.966;7.106;2023-03-01T18:30:43;14.03;;;9.20;;
3767;SDS011;1899;49.966;7.106;2023-03-01T18:33:08;12.57;;;9.10;;
3767;SDS011;1899;49.966;7.106;2023-03-01T18:35:37;13.80;;;9.50;;
3767;SDS011;1899;49.966;7.106;2023-03-01T18:38:02;12.40;;;8.15;;
3767;SDS011;1899;49.966;7.106;2023-03-01T18:40:28;10.40;;;8.43;;
3767;SDS011;1899;49.966;7.106;2023-03-01T18:42:54;12.20;;;9.38;;
3767;SDS011;1899;49.966;7.106;2023-03-01T18:45:19;12.35;;;8.63;;
3767;SDS011;1899;49.966;7.106;2023-03-01T18:47:44;11.43;;;8.80;;
3767;SDS011;1899;49.966;7.106;2023-03-01T18:50:09;11.60;;;8.97;;
3767;SDS011;1899;49.966;7.106;2023-03-01T18:52:35;11.97;;;8.77;;
3767;SDS011;1899;49.966;7.106;2023-03-01T18:55:00;12.57;;;8.87;;
3767;SDS011;1899;49.966;7.106;2023-03-01T18:57:25;13.37;;;8.50;;
3767;SDS011;1899;49.966;7.106;2023-03-01T18:59:51;10.57;;;8.67;;
3767;SDS011;1899;49.966;7.106;2023-03-01T19:02:16;11.50;;;8.30;;
3767;SDS011;1899;49.966;7.106;2023-03-01T19:04:41;10.32;;;8.57;;
3767;SDS011;1899;49.966;7.106;2023-03-01T19:07:07;10.30;;;7.93;;
3767;SDS011;1899;49.966;7.106;2023-03-01T19:09:32;11.50;;;8.40;;
3767;SDS011;1899;49.966;7.106;2023-03-01T19:11:57;11.17;;;8.40;;
3767;SDS011;1899;49.966;7.106;2023-03-01T19:14:25;11.50;;;8.35;;
3767;SDS011;1899;49.966;7.106;2023-03-01T19:16:51;11.30;;;8.05;;
3767;SDS011;1899;49.966;7.106;2023-03-01T19:19:16;11.35;;;8.48;;
3767;SDS011;1899;49.966;7.106;2023-03-01T19:21:41;12.97;;;8.53;;
3767;SDS011;1899;49.966;7.106;2023-03-01T19:24:07;11.70;;;9.30;;
3767;SDS011;1899;49.966;7.106;2023-03-01T19:26:32;12.07;;;8.83;;
3767;SDS011;1899;49.966;7.106;2023-03-01T19:28:58;13.40;;;8.90;;
3767;SDS011;1899;49.966;7.106;2023-03-01T19:31:24;11.52;;;8.40;;
3767;SDS011;1899;49.966;7.106;2023-03-01T19:33:50;11.82;;;8.68;;
3767;SDS011;1899;49.966;7.106;2023-03-01T19:36:16;12.07;;;8.97;;
3767;SDS011;1899;49.966;7.106;2023-03-01T19:38:42;12.82;;;9.10;;
3767;SDS011;1899;49.966;7.106;2023-03-01T19:41:11;11.70;;;9.50;;
3767;SDS011;1899;49.966;7.106;2023-03-01T19:43:38;13.13;;;9.35;;
3767;SDS011;1899;49.966;7.106;2023-03-01T19:46:04;13.07;;;9.93;;
3767;SDS011;1899;49.966;7.106;2023-03-01T19:48:29;12.60;;;9.30;;
3767;SDS011;1899;49.966;7.106;2023-03-01T19:50:54;13.83;;;9.87;;
3767;SDS011;1899;49.966;7.106;2023-03-01T19:53:20;13.30;;;9.50;;
3767;SDS011;1899;49.966;7.106;2023-03-01T19:55:46;13.53;;;9.90;;
3767;SDS011;1899;49.966;7.106;2023-03-01T19:58:11;14.57;;;9.60;;
3767;SDS011;1899;49.966;7.106;2023-03-01T20:00:37;12.97;;;9.90;;
3767;SDS011;1899;49.966;7.106;2023-03-01T20:03:02;12.65;;;10.05;;
3767;SDS011;1899;49.966;7.106;2023-03-01T20:05:31;14.33;;;10.20;;
3767;SDS011;1899;49.966;7.106;2023-03-01T20:07:56;12.55;;;9.52;;
3767;SDS011;1899;49.966;7.106;2023-03-01T20:10:23;15.70;;;9.67;;
3767;SDS011;1899;49.966;7.106;2023-03-01T20:12:51;13.90;;;9.57;;
3767;SDS011;1899;49.966;7.106;2023-03-01T20:15:16;14.87;;;10.50;;
3767;SDS011;1899;49.966;7.106;2023-03-01T20:17:41;15.93;;;9.93;;
3767;SDS011;1899;49.966;7.106;2023-03-01T20:20:06;12.67;;;9.57;;
3767;SDS011;1899;49.966;7.106;2023-03-01T20:22:32;16.00;;;10.23;;
3767;SDS011;1899;49.966;7.106;2023-03-01T20:24:57;15.43;;;10.20;;
3767;SDS011;1899;49.966;7.106;2023-03-01T20:27:22;13.10;;;10.03;;
3767;SDS011;1899;49.966;7.106;2023-03-01T20:29:47;13.13;;;10.23;;
3767;SDS011;1899;49.966;7.106;2023-03-01T20:32:13;13.43;;;9.37;;
3767;SDS011;1899;49.966;7.106;2023-03-01T20:34:38;14.07;;;9.60;;
3767;SDS011;1899;49.966;7.106;2023-03-01T20:37:03;13.30;;;9.63;;
3767;SDS011;1899;49.966;7.106;2023-03-01T20:39:28;13.80;;;10.20;;
3767;SDS011;1899;49.966;7.106;2023-03-01T20:41:54;12.50;;;9.27;;
3767;SDS011;1899;49.966;7.106;2023-03-01T20:44:19;14.70;;;9.80;;
3767;SDS011;1899;49.966;7.106;2023-03-01T20:46:44;12.67;;;9.63;;
3767;SDS011;1899;49.966;7.106;2023-03-01T20:49:10;13.52;;;10.43;;
3767;SDS011;1899;49.966;7.106;2023-03-01T20:51:35;13.87;;;10.23;;
3767;SDS011;1899;49.966;7.106;2023-03-01T20:54:00;13.52;;;9.90;;
3767;SDS011;1899;49.966;7.106;2023-03-01T20:56:26;12.43;;;9.93;;
3767;SDS011;1899;49.966;7.106;2023-03-01T20:58:53;13.90;;;11.00;;
